createdAt,value
2022-12-03T00:01:41.793Z,15.00
2022-12-03T00:04:13.023Z,14.13
2022-12-03T00:06:42.757Z,15.43
2022-12-03T00:09:12.581Z,15.57
2022-12-03T00:11:42.317Z,14.50
2022-12-03T00:14:12.214Z,16.50
2022-12-03T00:16:41.940Z,16.10
2022-12-03T00:19:11.685Z,16.13
2022-12-03T00:21:41.449Z,15.90
2022-12-03T00:24:11.777Z,15.72
2022-12-03T00:26:41.608Z,15.90
2022-12-03T00:29:11.714Z,15.93
2022-12-03T00:31:43.165Z,15.17
2022-12-03T00:34:13.246Z,15.95
2022-12-03T00:36:42.995Z,15.57
2022-12-03T00:39:12.743Z,16.97
2022-12-03T00:41:42.498Z,16.17
2022-12-03T00:44:12.272Z,15.80
2022-12-03T00:46:42.188Z,18.27
2022-12-03T00:49:12.059Z,16.80
2022-12-03T00:51:41.605Z,16.55
2022-12-03T00:54:12.071Z,17.22
2022-12-03T00:56:41.809Z,17.20
2022-12-03T00:59:11.876Z,17.17
2022-12-03T01:01:41.715Z,16.90
2022-12-03T01:04:11.677Z,17.15
2022-12-03T01:06:41.211Z,16.65
2022-12-03T01:09:10.945Z,16.47
2022-12-03T01:11:41.300Z,17.90
2022-12-03T01:14:14.000Z,16.82
2022-12-03T01:16:44.274Z,16.00
2022-12-03T01:19:15.919Z,16.20
2022-12-03T01:21:48.394Z,17.40
2022-12-03T01:24:20.470Z,17.80
2022-12-03T01:26:50.167Z,18.20
2022-12-03T01:29:19.931Z,17.20
2022-12-03T01:32:07.390Z,17.63
2022-12-03T01:34:37.134Z,17.17
2022-12-03T01:37:06.954Z,16.83
2022-12-03T01:39:36.798Z,16.97
2022-12-03T01:42:10.131Z,16.90
2022-12-03T01:44:41.706Z,17.50
2022-12-03T01:47:18.034Z,18.60
2022-12-03T01:49:50.843Z,17.97
2022-12-03T01:52:23.623Z,17.10
2022-12-03T01:55:02.058Z,18.15
2022-12-03T01:57:37.443Z,18.50
2022-12-03T02:00:15.534Z,17.50
2022-12-03T02:02:46.158Z,17.62
2022-12-03T02:05:33.156Z,18.82
2022-12-03T02:08:03.213Z,17.03
2022-12-03T02:10:37.530Z,18.87
2022-12-03T02:13:09.772Z,18.87
2022-12-03T02:15:41.315Z,18.57
2022-12-03T02:18:11.939Z,18.42
2022-12-03T02:20:50.362Z,16.73
2022-12-03T02:23:23.224Z,17.43
2022-12-03T02:25:53.470Z,19.42
2022-12-03T02:28:23.085Z,18.97
2022-12-03T02:30:52.915Z,18.77
2022-12-03T02:33:22.688Z,19.13
2022-12-03T02:35:52.570Z,19.13
2022-12-03T02:38:25.979Z,18.50
2022-12-03T02:40:59.032Z,18.30
2022-12-03T02:43:28.669Z,19.55
2022-12-03T02:46:01.132Z,20.00
2022-12-03T02:48:34.037Z,18.30
2022-12-03T02:54:38.130Z,19.37
2022-12-03T02:57:08.209Z,19.53
2022-12-03T02:59:38.101Z,19.23
2022-12-03T03:02:10.170Z,18.63
2022-12-03T03:04:40.884Z,17.77
2022-12-03T03:07:11.348Z,18.67
2022-12-03T03:09:41.676Z,18.23
2022-12-03T03:12:12.456Z,19.20
2022-12-03T03:14:42.331Z,18.13
2022-12-03T03:17:12.340Z,19.53
2022-12-03T03:19:42.886Z,19.10
2022-12-03T03:22:13.129Z,18.70
2022-12-03T03:24:42.939Z,19.03
2022-12-03T03:27:12.765Z,19.50
2022-12-03T03:29:42.509Z,20.77
2022-12-03T03:32:13.089Z,21.17
2022-12-03T03:34:42.955Z,18.97
2022-12-03T03:37:12.976Z,20.10
2022-12-03T03:39:42.718Z,20.27
2022-12-03T03:42:12.848Z,20.57
2022-12-03T03:44:42.817Z,20.90
2022-12-03T03:47:12.924Z,20.10
2022-12-03T03:49:43.216Z,19.80
2022-12-03T03:52:13.305Z,19.07
2022-12-03T03:54:43.201Z,19.00
2022-12-03T03:57:13.283Z,18.03
2022-12-03T03:59:43.170Z,18.73
2022-12-03T04:02:24.655Z,19.13
2022-12-03T04:04:55.382Z,18.65
2022-12-03T04:07:25.374Z,17.53
2022-12-03T04:09:55.172Z,19.27
2022-12-03T04:12:42.523Z,17.25
2022-12-03T04:15:11.975Z,17.10
2022-12-03T04:17:41.707Z,17.10
2022-12-03T04:20:13.489Z,17.25
2022-12-03T04:22:43.541Z,17.90
2022-12-03T04:25:30.621Z,17.40
2022-12-03T04:28:19.830Z,17.53
2022-12-03T04:30:49.947Z,16.95
2022-12-03T04:33:37.749Z,17.27
2022-12-03T04:36:10.225Z,17.82
2022-12-03T04:38:39.981Z,17.80
2022-12-03T04:41:10.049Z,18.75
2022-12-03T04:43:41.512Z,17.83
2022-12-03T04:46:11.749Z,17.98
2022-12-03T04:48:41.766Z,17.57
2022-12-03T04:51:11.817Z,18.80
2022-12-03T04:53:46.032Z,18.15
2022-12-03T04:56:12.401Z,19.07
2022-12-03T04:58:42.220Z,17.80
2022-12-03T05:01:12.106Z,17.90
2022-12-03T05:03:41.851Z,17.93
2022-12-03T05:06:11.742Z,18.83
2022-12-03T05:08:41.499Z,17.83
2022-12-03T05:11:12.875Z,17.93
2022-12-03T05:13:43.271Z,19.10
2022-12-03T05:16:13.213Z,17.90
2022-12-03T05:18:42.948Z,19.07
2022-12-03T05:21:13.075Z,18.95
2022-12-03T05:23:43.911Z,18.23
2022-12-03T05:26:13.432Z,18.53
2022-12-03T05:28:43.184Z,19.00
2022-12-03T05:31:13.138Z,18.60
2022-12-03T05:33:44.509Z,19.47
2022-12-03T05:36:14.503Z,17.80
2022-12-03T05:38:44.333Z,18.83
2022-12-03T05:41:31.579Z,18.03
2022-12-03T05:44:01.670Z,18.90
2022-12-03T05:46:32.523Z,19.20
2022-12-03T05:49:02.552Z,17.32
2022-12-03T05:51:32.371Z,18.77
2022-12-03T05:54:02.120Z,19.43
2022-12-03T05:56:31.879Z,19.10
2022-12-03T05:59:01.681Z,18.90
2022-12-03T06:01:31.394Z,18.83
2022-12-03T06:04:01.267Z,18.70
2022-12-03T06:06:31.118Z,18.67
2022-12-03T06:09:01.039Z,20.03
2022-12-03T06:11:32.562Z,18.77
2022-12-03T06:14:02.902Z,19.70
2022-12-03T06:16:32.867Z,18.27
2022-12-03T06:19:02.652Z,19.20
2022-12-03T06:21:32.412Z,20.40
2022-12-03T06:24:02.197Z,19.20
2022-12-03T06:26:31.934Z,20.77
2022-12-03T06:29:01.688Z,19.67
2022-12-03T06:31:31.500Z,19.70
2022-12-03T06:34:01.214Z,18.75
2022-12-03T06:36:31.129Z,19.40
2022-12-03T06:39:00.864Z,18.47
2022-12-03T06:41:30.624Z,18.90
2022-12-03T06:44:00.924Z,17.55
2022-12-03T06:46:30.879Z,18.17
2022-12-03T06:49:01.054Z,16.80
2022-12-03T06:51:30.511Z,17.32
2022-12-03T06:54:00.264Z,17.27
2022-12-03T06:56:35.850Z,17.90
2022-12-03T06:59:01.930Z,16.70
2022-12-03T07:01:31.726Z,18.37
2022-12-03T07:04:01.182Z,17.30
2022-12-03T07:06:31.035Z,17.40
2022-12-03T07:09:00.876Z,18.47
2022-12-03T07:11:33.306Z,18.00
2022-12-03T07:14:05.773Z,17.90
2022-12-03T07:16:36.867Z,17.30
2022-12-03T07:19:07.643Z,16.63
2022-12-03T07:21:37.543Z,19.37
2022-12-03T07:24:09.829Z,17.82
2022-12-03T07:26:39.587Z,19.03
2022-12-03T07:29:09.326Z,18.20
2022-12-03T07:31:39.148Z,18.17
2022-12-03T07:34:11.114Z,18.27
2022-12-03T07:36:40.924Z,20.63
2022-12-03T07:39:10.767Z,18.93
2022-12-03T07:41:40.639Z,18.13
2022-12-03T07:44:14.690Z,18.80
2022-12-03T07:46:44.702Z,18.55
2022-12-03T07:49:14.812Z,19.05
2022-12-03T07:51:46.260Z,18.43
2022-12-03T07:54:16.052Z,18.12
2022-12-03T07:56:45.798Z,18.57
2022-12-03T07:59:16.338Z,18.90
2022-12-03T08:01:46.703Z,18.37
2022-12-03T08:04:17.884Z,18.33
2022-12-03T08:06:48.127Z,18.73
2022-12-03T08:09:17.971Z,19.93
2022-12-03T08:11:49.905Z,19.63
2022-12-03T08:14:21.291Z,19.70
2022-12-03T08:16:51.569Z,19.23
2022-12-03T08:19:22.798Z,23.05
2022-12-03T08:21:57.978Z,21.97
2022-12-03T08:24:24.141Z,23.52
2022-12-03T08:26:53.924Z,22.67
2022-12-03T08:29:23.688Z,23.00
2022-12-03T08:31:55.586Z,23.57
2022-12-03T08:34:28.203Z,24.10
2022-12-03T08:37:01.010Z,24.47
2022-12-03T08:39:33.819Z,24.53
2022-12-03T08:42:29.826Z,24.47
2022-12-03T08:45:02.701Z,24.07
2022-12-03T08:47:32.772Z,25.13
2022-12-03T08:50:05.563Z,24.67
2022-12-03T08:52:36.073Z,23.77
2022-12-03T08:55:30.012Z,24.45
2022-12-03T08:58:00.480Z,22.20
2022-12-03T09:00:30.424Z,21.80
2022-12-03T09:03:01.753Z,20.52
2022-12-03T09:05:35.117Z,21.83
2022-12-03T09:08:06.638Z,20.95
2022-12-03T09:10:36.374Z,20.87
2022-12-03T09:13:06.196Z,19.97
2022-12-03T09:15:35.967Z,19.83
2022-12-03T09:18:06.759Z,20.97
2022-12-03T09:20:36.512Z,20.30
2022-12-03T09:23:06.265Z,18.87
2022-12-03T09:25:36.297Z,19.85
2022-12-03T09:28:08.249Z,18.27
2022-12-03T09:30:38.039Z,18.37
2022-12-03T09:33:07.884Z,20.17
2022-12-03T09:35:37.724Z,19.13
2022-12-03T09:38:08.451Z,17.23
2022-12-03T09:40:39.064Z,16.50
2022-12-03T09:43:09.179Z,17.47
2022-12-03T09:45:39.314Z,17.45
2022-12-03T09:48:12.461Z,18.55
2022-12-03T09:50:43.639Z,16.83
2022-12-03T09:53:22.226Z,17.73
2022-12-03T09:55:52.295Z,17.30
2022-12-03T09:58:23.065Z,18.90
2022-12-03T10:00:53.577Z,17.80
2022-12-03T10:03:29.885Z,18.23
2022-12-03T10:05:58.672Z,18.00
2022-12-03T10:08:32.999Z,18.23
2022-12-03T10:11:02.812Z,18.40
2022-12-03T10:13:35.447Z,18.10
2022-12-03T10:16:08.139Z,19.73
2022-12-03T10:18:41.749Z,18.63
2022-12-03T10:21:20.285Z,20.30
2022-12-03T10:23:55.106Z,19.33
2022-12-03T10:26:25.026Z,21.93
2022-12-03T10:28:56.498Z,20.53
2022-12-03T10:31:29.361Z,19.63
2022-12-03T10:34:02.733Z,19.60
2022-12-03T10:36:33.176Z,21.13
2022-12-03T10:39:17.153Z,20.17
2022-12-03T10:41:47.558Z,19.57
2022-12-03T10:44:22.708Z,19.47
2022-12-03T10:47:11.375Z,19.45
2022-12-03T10:49:42.709Z,19.77
2022-12-03T10:52:22.584Z,20.12
2022-12-03T10:54:51.064Z,20.37
2022-12-03T10:57:21.329Z,18.70
2022-12-03T10:59:51.400Z,18.83
2022-12-03T11:02:23.478Z,18.40
2022-12-03T11:04:54.199Z,18.85
2022-12-03T11:07:26.061Z,19.55
2022-12-03T11:09:55.809Z,19.45
2022-12-03T11:12:28.270Z,18.50
2022-12-03T11:15:01.269Z,20.53
2022-12-03T11:17:42.686Z,18.97
2022-12-03T11:20:28.106Z,17.62
2022-12-03T11:22:59.472Z,16.43
2022-12-03T11:25:32.349Z,18.93
2022-12-03T11:28:17.314Z,19.48
2022-12-03T11:30:54.457Z,18.33
2022-12-03T11:33:26.607Z,19.37
2022-12-03T11:36:08.488Z,20.43
2022-12-03T11:38:53.372Z,20.37
2022-12-03T11:41:30.563Z,21.03
2022-12-03T11:44:03.908Z,20.50
2022-12-03T11:46:43.042Z,20.65
2022-12-03T11:49:35.718Z,19.73
2022-12-03T11:52:25.725Z,19.70
2022-12-03T11:55:04.606Z,19.27
2022-12-03T11:57:37.701Z,19.42
2022-12-03T12:00:11.612Z,19.87
2022-12-03T12:02:44.738Z,19.90
2022-12-03T12:05:35.511Z,21.35
2022-12-03T12:08:08.594Z,20.00
2022-12-03T12:10:43.820Z,20.47
2022-12-03T12:13:34.902Z,19.23
2022-12-03T12:16:08.443Z,20.00
2022-12-03T12:18:54.855Z,20.35
2022-12-03T12:21:49.901Z,18.40
2022-12-03T12:24:42.529Z,19.27
2022-12-03T12:27:18.481Z,19.15
2022-12-03T12:29:56.404Z,19.57
2022-12-03T12:32:32.558Z,19.37
2022-12-03T12:35:05.048Z,18.40
2022-12-03T12:37:38.186Z,20.92
2022-12-03T12:40:15.787Z,19.77
2022-12-03T12:45:18.793Z,17.07
2022-12-03T12:48:00.672Z,17.63
2022-12-03T12:50:33.098Z,18.92
2022-12-03T12:53:22.291Z,19.00
2022-12-03T12:56:03.094Z,19.05
2022-12-03T12:58:34.189Z,17.97
2022-12-03T13:01:07.258Z,18.70
2022-12-03T13:03:40.220Z,18.70
2022-12-03T13:06:15.553Z,20.75
2022-12-03T13:08:48.228Z,20.60
2022-12-03T13:11:36.865Z,21.33
2022-12-03T13:16:54.167Z,20.65
2022-12-03T13:19:31.900Z,18.70
2022-12-03T13:22:12.978Z,20.00
2022-12-03T13:24:47.591Z,20.77
2022-12-03T13:27:25.560Z,20.10
2022-12-03T13:30:04.281Z,19.32
2022-12-03T13:32:36.998Z,21.10
2022-12-03T13:35:27.033Z,20.80
2022-12-03T13:37:58.656Z,21.07
2022-12-03T13:40:31.294Z,21.37
2022-12-03T13:43:02.658Z,20.23
2022-12-03T13:45:40.934Z,22.27
2022-12-03T13:48:26.613Z,21.57
2022-12-03T13:50:58.487Z,20.55
2022-12-03T13:53:37.122Z,21.20
2022-12-03T13:56:24.917Z,22.87
2022-12-03T13:58:54.874Z,20.77
2022-12-03T14:01:24.721Z,20.83
2022-12-03T14:03:54.920Z,21.20
2022-12-03T14:06:26.058Z,22.50
2022-12-03T14:08:55.802Z,21.57
2022-12-03T14:11:43.208Z,21.87
2022-12-03T14:14:14.119Z,22.16
2022-12-03T14:16:43.910Z,21.37
2022-12-03T14:19:14.154Z,22.20
2022-12-03T14:21:43.980Z,21.07
2022-12-03T14:24:13.540Z,21.87
2022-12-03T14:26:43.309Z,22.70
2022-12-03T14:29:13.115Z,20.67
2022-12-03T14:31:42.959Z,22.60
2022-12-03T14:34:12.422Z,23.00
2022-12-03T14:36:42.232Z,21.27
2022-12-03T14:39:12.195Z,22.83
2022-12-03T14:41:59.582Z,21.60
2022-12-03T14:44:29.364Z,21.63
2022-12-03T14:46:59.116Z,36.10
2022-12-03T14:49:29.139Z,22.13
2022-12-03T14:52:02.112Z,27.87
2022-12-03T14:54:32.757Z,23.43
2022-12-03T14:57:02.679Z,21.43
2022-12-03T14:59:32.443Z,30.33
2022-12-03T15:02:02.072Z,30.90
2022-12-03T15:04:32.125Z,24.90
2022-12-03T15:07:02.220Z,23.12
2022-12-03T15:09:31.996Z,40.77
2022-12-03T15:12:01.847Z,29.73
2022-12-03T15:14:31.736Z,26.70
2022-12-03T15:17:01.624Z,23.13
2022-12-03T15:19:31.414Z,23.20
2022-12-03T15:22:01.167Z,22.37
2022-12-03T15:24:31.310Z,22.75
2022-12-03T15:27:01.382Z,21.77
2022-12-03T15:29:32.345Z,20.95
2022-12-03T15:32:03.091Z,21.97
2022-12-03T15:34:32.832Z,21.63
2022-12-03T15:37:02.639Z,21.90
2022-12-03T15:39:33.282Z,22.87
2022-12-03T15:42:03.332Z,21.75
2022-12-03T15:44:33.084Z,21.47
2022-12-03T15:47:02.874Z,21.80
2022-12-03T15:49:32.678Z,34.87
2022-12-03T15:52:02.782Z,44.80
2022-12-03T15:54:32.559Z,51.90
2022-12-03T15:57:02.687Z,33.08
2022-12-03T15:59:32.451Z,25.00
2022-12-03T16:02:02.329Z,78.60
2022-12-03T16:04:32.385Z,31.20
2022-12-03T16:07:02.196Z,36.70
2022-12-03T16:09:32.256Z,25.72
2022-12-03T16:12:02.298Z,22.60
2022-12-03T16:14:32.188Z,21.50
2022-12-03T16:17:02.105Z,21.03
2022-12-03T16:19:31.886Z,20.43
2022-12-03T16:22:03.178Z,21.60
2022-12-03T16:24:32.990Z,21.52
2022-12-03T16:27:02.786Z,20.57
2022-12-03T16:29:32.530Z,20.47
2022-12-03T16:32:02.480Z,21.47
2022-12-03T16:34:32.530Z,21.87
2022-12-03T16:37:02.315Z,22.17
2022-12-03T16:39:33.741Z,22.90
2022-12-03T16:42:04.801Z,34.93
2022-12-03T16:44:36.150Z,114.03
2022-12-03T16:47:05.983Z,42.57
2022-12-03T16:49:36.078Z,25.82
2022-12-03T16:52:08.533Z,24.10
2022-12-03T16:54:38.426Z,23.70
2022-12-03T16:57:08.234Z,22.43
2022-12-03T16:59:38.356Z,21.17
2022-12-03T17:02:12.857Z,21.56
2022-12-03T17:04:42.747Z,21.60
2022-12-03T17:07:12.507Z,22.53
2022-12-03T17:09:42.351Z,23.00
2022-12-03T17:12:13.986Z,23.32
2022-12-03T17:14:43.724Z,22.77
2022-12-03T17:17:13.506Z,25.70
2022-12-03T17:19:43.259Z,25.10
2022-12-03T17:22:14.492Z,24.17
2022-12-03T17:24:45.405Z,24.30
2022-12-03T17:27:15.726Z,23.10
2022-12-03T17:29:45.468Z,23.40
2022-12-03T17:32:15.568Z,24.30
2022-12-03T17:34:45.626Z,26.02
2022-12-03T17:37:15.384Z,43.83
2022-12-03T17:39:45.429Z,30.40
2022-12-03T17:42:15.548Z,26.12
2022-12-03T17:44:45.288Z,27.07
2022-12-03T17:47:15.624Z,26.77
2022-12-03T17:49:45.371Z,28.60
2022-12-03T17:52:16.064Z,25.22
2022-12-03T17:55:10.036Z,26.47
2022-12-03T17:57:17.314Z,27.80
2022-12-03T17:59:47.374Z,25.65
2022-12-03T18:02:19.441Z,24.80
2022-12-03T18:04:49.429Z,24.63
2022-12-03T18:07:19.171Z,25.03
2022-12-03T18:09:48.920Z,24.87
2022-12-03T18:12:18.685Z,24.95
2022-12-03T18:14:48.724Z,24.95
2022-12-03T18:17:18.821Z,25.12
2022-12-03T18:19:48.639Z,25.63
2022-12-03T18:22:18.510Z,24.53
2022-12-03T18:24:51.924Z,25.27
2022-12-03T18:27:22.161Z,25.17
2022-12-03T18:29:52.294Z,25.37
2022-12-03T18:32:30.126Z,24.73
2022-12-03T18:34:54.134Z,24.60
2022-12-03T18:37:27.255Z,24.72
2022-12-03T18:39:58.593Z,24.50
2022-12-03T18:42:28.509Z,26.45
2022-12-03T18:44:58.432Z,35.63
2022-12-03T18:47:29.792Z,32.90
2022-12-03T18:49:59.758Z,46.00
2022-12-03T18:52:29.225Z,27.93
2022-12-03T18:54:59.305Z,29.70
2022-12-03T18:57:29.051Z,28.93
2022-12-03T18:59:58.925Z,29.60
2022-12-03T19:05:00.044Z,30.80
2022-12-03T19:07:29.814Z,51.40
2022-12-03T19:10:00.014Z,39.20
2022-12-03T19:12:29.834Z,31.62
2022-12-03T19:14:59.886Z,32.78
2022-12-03T19:17:29.794Z,28.97
2022-12-03T19:19:59.873Z,29.10
2022-12-03T19:22:30.035Z,31.70
2022-12-03T19:24:59.793Z,29.70
2022-12-03T19:27:31.702Z,29.07
2022-12-03T19:30:01.419Z,28.97
2022-12-03T19:32:30.963Z,30.77
2022-12-03T19:35:02.375Z,30.90
2022-12-03T19:37:35.250Z,29.63
2022-12-03T19:40:10.181Z,29.65
2022-12-03T19:42:40.788Z,28.77
2022-12-03T19:45:10.624Z,29.93
2022-12-03T19:47:40.442Z,29.00
2022-12-03T19:50:11.818Z,30.50
2022-12-03T19:52:41.578Z,29.37
2022-12-03T19:55:11.031Z,30.10
2022-12-03T19:57:41.062Z,30.52
2022-12-03T20:00:13.508Z,29.38
2022-12-03T20:02:43.503Z,29.03
2022-12-03T20:05:13.223Z,26.47
2022-12-03T20:07:43.047Z,29.43
2022-12-03T20:10:14.449Z,28.55
2022-12-03T20:12:44.273Z,29.60
2022-12-03T20:15:15.004Z,29.20
2022-12-03T20:17:44.516Z,30.23
2022-12-03T20:20:14.124Z,29.07
2022-12-03T20:22:43.907Z,28.13
2022-12-03T20:25:14.127Z,28.57
2022-12-03T20:27:43.889Z,28.53
2022-12-03T20:30:15.638Z,28.20
2022-12-03T20:32:45.780Z,29.20
2022-12-03T20:35:15.221Z,28.70
2022-12-03T20:37:44.657Z,28.85
2022-12-03T20:40:15.547Z,29.65
2022-12-03T20:42:49.623Z,28.03
2022-12-03T20:45:19.539Z,28.10
2022-12-03T20:47:49.284Z,29.77
2022-12-03T20:50:18.854Z,30.15
2022-12-03T20:53:09.702Z,29.60
2022-12-03T20:55:19.744Z,28.47
2022-12-03T20:57:50.253Z,28.30
2022-12-03T21:00:20.362Z,27.95
2022-12-03T21:02:50.207Z,28.23
2022-12-03T21:05:19.980Z,28.67
2022-12-03T21:07:51.771Z,29.30
2022-12-03T21:10:36.418Z,29.92
2022-12-03T21:13:06.464Z,29.25
2022-12-03T21:15:36.236Z,29.97
2022-12-03T21:18:06.100Z,30.13
2022-12-03T21:20:44.022Z,29.97
2022-12-03T21:23:14.501Z,27.80
2022-12-03T21:25:44.309Z,29.97
2022-12-03T21:28:14.076Z,30.37
2022-12-03T21:30:44.215Z,29.37
2022-12-03T21:33:14.310Z,30.48
2022-12-03T21:35:44.086Z,29.70
2022-12-03T21:38:14.593Z,30.23
2022-12-03T21:40:44.348Z,29.63
2022-12-03T21:43:14.122Z,30.50
2022-12-03T21:45:44.578Z,29.60
2022-12-03T21:48:14.840Z,30.17
2022-12-03T21:50:45.505Z,28.32
2022-12-03T21:53:15.540Z,30.37
2022-12-03T21:55:45.289Z,30.23
2022-12-03T21:58:16.721Z,28.67
2022-12-03T22:00:46.808Z,30.12
2022-12-03T22:03:16.659Z,30.53
2022-12-03T22:05:46.445Z,30.80
2022-12-03T22:08:17.353Z,30.05
2022-12-03T22:10:47.130Z,31.00
2022-12-03T22:13:16.890Z,31.00
2022-12-03T22:15:46.504Z,30.32
2022-12-03T22:18:16.585Z,31.42
2022-12-03T22:20:46.366Z,31.50
2022-12-03T22:23:16.200Z,31.37
2022-12-03T22:25:46.258Z,30.75
2022-12-03T22:28:16.942Z,32.80
2022-12-03T22:30:47.089Z,30.85
2022-12-03T22:33:16.921Z,29.60
2022-12-03T22:36:01.235Z,31.37
2022-12-03T22:38:32.431Z,31.37
2022-12-03T22:41:07.330Z,29.57
2022-12-03T22:43:37.568Z,28.93
2022-12-03T22:46:10.482Z,30.13
2022-12-03T22:48:41.740Z,30.97
2022-12-03T22:51:14.253Z,30.23
2022-12-03T22:53:44.081Z,30.27
2022-12-03T22:56:17.265Z,31.73
2022-12-03T22:58:47.098Z,32.17
2022-12-03T23:01:37.784Z,31.87
2022-12-03T23:04:09.117Z,31.90
2022-12-03T23:06:39.587Z,32.43
2022-12-03T23:09:09.362Z,31.50
2022-12-03T23:11:39.232Z,31.70
2022-12-03T23:14:11.083Z,29.75
2022-12-03T23:16:41.484Z,31.75
2022-12-03T23:19:11.552Z,31.75
2022-12-03T23:21:41.364Z,30.90
2022-12-03T23:24:13.609Z,32.50
2022-12-03T23:26:43.519Z,31.63
2022-12-03T23:29:13.586Z,31.20
2022-12-03T23:31:43.408Z,33.00
2022-12-03T23:34:14.468Z,32.60
2022-12-03T23:36:44.311Z,32.23
2022-12-03T23:39:14.377Z,33.25
2022-12-03T23:41:44.266Z,30.37
2022-12-03T23:44:15.929Z,32.95
2022-12-03T23:46:45.799Z,32.07
2022-12-03T23:49:15.899Z,32.63
2022-12-03T23:51:45.978Z,32.93
2022-12-03T23:54:15.702Z,31.83
2022-12-03T23:56:45.837Z,32.30
2022-12-03T23:59:15.879Z,32.08
